This demonstration page uses our WeatherBlox Daily Observations layout. Learn more.

36.17497, -115.13722

Hourly Observations for November 3, 2018

Temp ( °F °C ) Dew Point ( °F °C ) Humidity (%) Winds ( mph kmh ) Pressure ( in mb ) Visibility ( mi km ) Precip ( " mm )
12:53 am 00:53 Clear 70 21.1 26 -3.3 19 19 NNW 10 17 29.97 1015 10 16.09344 0 0
1:53 am 01:53 Clear 65 18.3 33 0.6 31 31 SSE 5 7 30 1016 10 16.09344 0 0
2:53 am 02:53 Clear 62 16.7 35 1.7 37 37 N 5 7 30 1016 10 16.09344 0 0
3:53 am 03:53 Clear 65 18.3 22 -5.6 19 19 N 8 13 30 1016 10 16.09344 0 0
4:53 am 04:53 Clear 64 17.8 24 -4.4 22 22 WNW 13 20 30 1016 10 16.09344 0 0
5:53 am 05:53 Clear 65 18.3 21 -6.1 19 19 N 14 22 30 1016 10 16.09344 0 0
6:53 am 06:53 Clear 64 17.8 22 -5.6 20 20 N 16 26 30.03 1017 10 16.09344 0 0
7:53 am 07:53 Sunny 68 20 23 -5 18 18 N 20 31 30.06 1018 10 16.09344 0 0
8:53 am 08:53 Sunny 70 21.1 25 -3.9 18 18 NE 3 6 30.09 1019 10 16.09344 0 0
9:53 am 09:53 Sunny 73 22.8 27 -2.8 18 18 NE 9 15 30.12 1020 10 16.09344 0 0
10:53 am 10:53 Sunny 75 23.9 26 -3.3 16 16 NE 10 17 30.12 1020 10 16.09344 0 0
11:53 am 11:53 Sunny 75 23.9 27 -2.8 17 17 N 7 11 30.09 1019 10 16.09344 0 0
12:53 pm 12:53 Sunny 78 25.6 25 -3.9 14 14 N 10 17 30.06 1018 10 16.09344 0 0
1:53 pm 13:53 Sunny 79 26.1 22 -5.6 12 12 N 14 22 30.03 1017 10 16.09344 0 0
2:53 pm 14:53 Sunny 80 26.7 21 -6.1 11 11 NNE 15 24 30.03 1017 10 16.09344 0 0
3:53 pm 15:53 Sunny 78 25.6 22 -5.6 12 12 E 7 11 30.03 1017 10 16.09344 0 0
4:53 pm 16:53 Sunny 76 24.4 20 -6.7 12 12 E 9 15 30.03 1017 10 16.09344 0 0
5:53 pm 17:53 Clear 73 22.8 20 -6.7 13 13 SE 7 11 30.03 1017 10 16.09344 0 0
6:53 pm 18:53 Clear 70 21.1 23 -5 17 17 NNW 3 6 30.03 1017 10 16.09344 0 0
7:53 pm 19:53 Clear 68 20 24 -4.4 19 19 S 5 7 30.06 1018 10 16.09344 0 0
8:53 pm 20:53 Clear 66 18.9 28 -2.2 24 24 Calm 30.06 1018 10 16.09344 0 0
9:53 pm 21:53 Clear 63 17.2 27 -2.8 26 26 NW 5 7 30.09 1019 10 16.09344 0 0
10:53 pm 22:53 Clear 61 16.1 29 -1.7 30 30 N 6 9 30.09 1019 10 16.09344 0 0
11:53 pm 23:53 Clear 60 15.6 29 -1.7 31 31 NW 5 7 30.09 1019 10 16.09344 0 0

Powered by AerisWeather